METAR Data
IDs: Format: Raw Decoded Include TAF

Data at: 2154 UTC 22 Sep 2020

KLNL 222135Z AUTO 00000KT 10SM CLR 25/06 A3007 RMK AO2 T02510059
KLNL 222115Z AUTO 30003KT 10SM CLR 25/06 A3008 RMK AO2 T02520057
KLNL 222055Z AUTO 00000KT 10SM CLR 25/05 A3008 RMK AO2 T02520051
KLNL 222035Z AUTO 29005KT 10SM CLR 25/06 A3008 RMK AO2 T02520060
KLNL 222015Z AUTO 25004KT 10SM CLR 25/06 A3008 RMK AO2 T02520058
KLNL 221955Z AUTO 28004KT 10SM CLR 25/06 A3009 RMK AO2 T02530057
KLNL 221935Z AUTO 31005KT 10SM CLR 25/06 A3009 RMK AO2 T02500057
KLNL 221915Z AUTO 32006KT 10SM CLR 25/06 A3010 RMK AO2 T02500060
KLNL 221855Z AUTO 27003KT 10SM CLR 25/06 A3010 RMK AO2 T02500061
KLNL 221835Z AUTO 27003KT 10SM CLR 25/06 A3011 RMK AO2 T02470063
KLNL 221815Z AUTO 32006KT 10SM CLR 25/07 A3012 RMK AO2 T02480070
KLNL 221755Z AUTO 34008KT 10SM CLR 24/07 A3012 RMK AO2 T02410070 10243 20060
KLNL 221735Z AUTO 30004KT 10SM CLR 24/08 A3012 RMK AO2 T02400078
KLNL 221715Z AUTO 25004KT 10SM CLR 24/08 A3013 RMK AO2 T02360084
KLNL 221655Z AUTO 33003KT 10SM CLR 23/10 A3013 RMK AO2 T02300099
KLNL 221635Z AUTO 00000KT 10SM CLR 22/10 A3014 RMK AO2 T02220096
KLNL 221615Z AUTO 26003KT 10SM CLR 22/10 A3014 RMK AO2 T02160104
KLNL 221555Z AUTO 33004KT 10SM CLR 21/11 A3015 RMK AO2 T02070110
KLNL 221535Z AUTO 27003KT 10SM CLR 20/12 A3015 RMK AO2 T01980116
KLNL 221515Z AUTO 00000KT 10SM CLR 19/12 A3015 RMK AO2 T01900122
KLNL 221455Z AUTO 27003KT 10SM CLR 18/12 A3015 RMK AO2 T01800123
KLNL 221435Z AUTO 00000KT 10SM CLR 17/13 A3015 RMK AO2 T01700128
KLNL 221415Z AUTO 26003KT 10SM CLR 16/13 A3015 RMK AO2 T01550125
KLNL 221355Z AUTO 00000KT 10SM CLR 14/12 A3015 RMK AO2 T01350116
KLNL 221335Z AUTO 00000KT 10SM CLR 12/12 A3015 RMK AO2 T01190118
KLNL 221315Z AUTO 00000KT 10SM CLR 11/11 A3015 RMK AO2 T01060106
KLNL 221255Z AUTO 00000KT 10SM CLR 09/09 A3015 RMK AO2 T00860086
KLNL 221235Z AUTO 00000KT 10SM CLR 07/07 A3016 RMK AO2 T00680068
KLNL 221215Z AUTO 00000KT 3SM BR CLR 06/06 A3016 RMK AO2 T00630062
KLNL 221155Z AUTO 00000KT 1SM BR VV007 06/06 A3016 RMK AO2 70004 T00620061 10131 20061
KLNL 221135Z AUTO 00000KT 2 1/2SM BR CLR 06/06 A3015 RMK AO2 T00630062
KLNL 221115Z AUTO 00000KT 1SM BR VV007 07/07 A3015 RMK AO2 T00670066
KLNL 221055Z AUTO 00000KT 4SM BR CLR 06/06 A3015 RMK AO2 T00630061
KLNL 221035Z AUTO 00000KT 1SM BR VV007 07/07 A3014 RMK AO2 T00690066
KLNL 221015Z AUTO 00000KT 5SM BR CLR 07/07 A3014 RMK AO2 T00700067
KLNL 220955Z AUTO 00000KT 5SM BR CLR 07/07 A3014 RMK AO2 T00700067
KLNL 220935Z AUTO 00000KT 7SM CLR 07/07 A3014 RMK AO2 T00740070
KLNL 220915Z AUTO 00000KT 10SM CLR 08/08 A3014 RMK AO2 T00810079
KLNL 220855Z AUTO 00000KT 10SM CLR 08/08 A3014 RMK AO2 T00810076
KLNL 220835Z AUTO 00000KT 10SM CLR 09/08 A3014 RMK AO2 T00850076
KLNL 220815Z AUTO 00000KT 10SM CLR 09/09 A3014 RMK AO2 T00930089
KLNL 220755Z AUTO 00000KT 7SM CLR 09/09 A3014 RMK AO2 T00920088
KLNL 220735Z AUTO 00000KT 10SM CLR 10/09 A3014 RMK AO2 T00960089
KLNL 220715Z AUTO 00000KT 10SM CLR 11/09 A3014 RMK AO2 T01080092
KLNL 220655Z AUTO 00000KT 10SM CLR 11/10 A3014 RMK AO2 T01080096
KLNL 220635Z AUTO 00000KT 10SM CLR 11/10 A3014 RMK AO2 LTG DSNT SW T01090095
KLNL 220615Z AUTO 00000KT 10SM CLR 12/10 A3014 RMK AO2 T01240095
KLNL 220555Z AUTO 00000KT 10SM CLR 13/10 A3014 RMK AO2 T01310099 10155 20131 402160113
KLNL 220535Z AUTO 00000KT 10SM CLR 14/10 A3015 RMK AO2 T01360100
KLNL 220515Z AUTO 22003KT 10SM CLR 14/10 A3015 RMK AO2 T01400102
KLNL 220455Z AUTO 20003KT 10SM CLR 15/11 A3015 RMK AO2 T01450105
KLNL 220435Z AUTO 21005KT 10SM CLR 15/11 A3014 RMK AO2 T01470106
KLNL 220415Z AUTO 21004KT 10SM CLR 15/11 A3015 RMK AO2 T01500109
KLNL 220355Z AUTO 21004KT 10SM CLR 15/11 A3014 RMK AO2 LTG DSNT SE T01500111
KLNL 220335Z AUTO 21005KT 10SM CLR 15/12 A3014 RMK AO2 LTG DSNT NE T01480115
KLNL 220315Z AUTO 21005KT 10SM CLR 15/12 A3014 RMK AO2 LTG DSNT NE T01490115
KLNL 220255Z AUTO 20005KT 10SM CLR 15/12 A3014 RMK AO2 T01500115
KLNL 220235Z AUTO 20004KT 10SM CLR 15/12 A3015 RMK AO2 T01480116
KLNL 220215Z AUTO 20003KT 10SM SCT090 SCT120 15/12 A3015 RMK AO2 T01480117
KLNL 220155Z AUTO 20003KT 10SM BKN090 15/12 A3015 RMK AO2 LTG DSNT NE T01530118
KLNL 220135Z AUTO 00000KT 10SM OVC090 16/12 A3015 RMK AO2 LTG DSNT NE AND E T01550120
KLNL 220115Z AUTO 20004KT 10SM BKN090 OVC120 15/12 A3015 RMK AO2 T01530121
KLNL 220055Z AUTO 00000KT 10SM BKN100 BKN120 15/12 A3015 RMK AO2 LTG DSNT NE T01500122
KLNL 220035Z AUTO 19004KT 10SM BKN110 15/12 A3013 RMK AO2 LTG DSNT NE T01520123
KLNL 220015Z AUTO 17003KT 10SM OVC110 15/13 A3013 RMK AO2 LTG DSNT NE T01520125
KLNL 212355Z AUTO 00000KT 10SM OVC110 16/13 A3014 RMK AO2 LTG DSNT NE P0001 60004 T01550126 10216 20154
KLNL 212335Z AUTO 18007G17KT 10SM VCTS SCT060 SCT080 BKN100 16/13 A3011 RMK AO2 LTG DSNT NE AND NW P0001 T01550126
KLNL 212315Z AUTO 18012G19KT 10SM -VCTSRA SCT044 SCT055 OVC100 15/13 A3011 RMK AO2 LTG DSNT W AND NW P0001 T01540126
KLNL 212255Z AUTO 19008KT 10SM -VCTSRA SCT034 SCT060 OVC090 16/12 A3014 RMK AO2 LTG DSNT SW THRU NE P0003 T01590124
KLNL 212235Z AUTO 19008G17KT 7SM -TSRA BKN090 OVC110 17/12 A3015 RMK AO2 LTG DSNT ALQS P0002 T01700118
KLNL 212215Z AUTO 20006G16KT 170V230 10SM VCTS BKN080 BKN100 20/10 A3012 RMK AO2 T01970099
KLNL 212155Z AUTO 21008G16KT 10SM CLR 20/10 A3012 RMK AO2 LTG DSNT W T02030095
KLNL 212135Z AUTO 19008G18KT 10SM CLR 20/10 A3012 RMK AO2 LTG DSNT SW AND W T02040097
KLNL 212115Z AUTO 21007G16KT 10SM CLR 20/10 A3014 RMK AO2 LTG DSNT SW AND W T02010095
KLNL 212055Z AUTO 20006G17KT 10SM CLR 21/09 A3013 RMK AO2 LTG DSNT W T02070092
KLNL 212035Z AUTO 21011G18KT 10SM CLR 21/09 A3014 RMK AO2 T02110090
KLNL 212015Z AUTO 19012G15KT 160V220 10SM CLR 21/09 A3015 RMK AO2 T02140094
KLNL 211955Z AUTO 20011G16KT 10SM CLR 21/09 A3015 RMK AO2 LTG DSNT S T02130093
KLNL 211935Z AUTO 20006G14KT 160V230 10SM CLR 21/10 A3015 RMK AO2 LTG DSNT W T02070095
KLNL 211915Z AUTO 19009G16KT 10SM CLR 21/09 A3016 RMK AO2 T02090093
KLNL 211855Z AUTO 20009G20KT 160V240 10SM CLR 20/09 A3017 RMK AO2 T02030091
KLNL 211835Z AUTO 21007G15KT 10SM CLR 21/09 A3018 RMK AO2 T02050093
KLNL 211815Z AUTO 21008KT 160V240 10SM CLR 20/09 A3019 RMK AO2 T01960091
KLNL 211755Z AUTO 21010KT 10SM CLR 19/09 A3019 RMK AO2 LTG DSNT SW T01900093 10198 20113
KLNL 211735Z AUTO 20006G14KT 10SM CLR 18/08 A3019 RMK AO2 T01770083
KLNL 211715Z AUTO 18010G17KT 160V220 10SM CLR 20/08 A3020 RMK AO2 T01970080
KLNL 211655Z AUTO 20009G17KT 10SM CLR 19/08 A3021 RMK AO2 T01910078
KLNL 211635Z AUTO 21008G16KT 10SM CLR 19/08 A3021 RMK AO2 T01890077
KLNL 211615Z AUTO 21008G18KT 180V240 10SM CLR 19/07 A3022 RMK AO2 T01850070
KLNL 211555Z AUTO 19006G16KT 160V220 10SM CLR 18/07 A3022 RMK AO2 T01790066
KLNL 211535Z AUTO 19007G14KT 10SM CLR 17/06 A3023 RMK AO2 T01710062
KLNL 211515Z AUTO 20007G14KT 10SM CLR 17/06 A3023 RMK AO2 T01660056
KLNL 211455Z AUTO 21008G18KT 10SM CLR 16/05 A3023 RMK AO2 T01570052
KLNL 211435Z AUTO 19007KT 10SM CLR 15/05 A3024 RMK AO2 T01460049
KLNL 211415Z AUTO 19006KT 10SM CLR 14/05 A3024 RMK AO2 T01400047
KLNL 211355Z AUTO 19007KT 10SM CLR 13/05 A3024 RMK AO2 T01340045
KLNL 211335Z AUTO 19004KT 10SM CLR 13/04 A3025 RMK AO2 T01270044
KLNL 211315Z AUTO 20004KT 10SM CLR 12/04 A3025 RMK AO2 T01210042
KLNL 211255Z AUTO 19005KT 10SM CLR 11/04 A3025 RMK AO2 T01130041
KLNL 211235Z AUTO 19004KT 10SM CLR 11/04 A3025 RMK AO2 T01130040
KLNL 211215Z AUTO 20004KT 10SM CLR 12/04 A3026 RMK AO2 T01150041
KLNL 211155Z AUTO 20004KT 10SM CLR 12/04 A3026 RMK AO2 T01180042 10127 20113
KLNL 211135Z AUTO 19003KT 10SM CLR 12/04 A3026 RMK AO2 T01160042
KLNL 211115Z AUTO 19005KT 10SM CLR 12/04 A3025 RMK AO2 T01150042
KLNL 211055Z AUTO 19003KT 10SM CLR 12/04 A3025 RMK AO2 T01150042
KLNL 211035Z AUTO 17004KT 10SM CLR 11/04 A3025 RMK AO2 T01140043
KLNL 211015Z AUTO 19004KT 10SM CLR 12/04 A3026 RMK AO2 T01190043
KLNL 210955Z AUTO 19005KT 10SM CLR 12/04 A3025 RMK AO2 T01220044